sensor_id;sensor_type;location;lat;lon;timestamp;temperature;humidity
21282;DHT22;10800;53.096;18.328;2023-12-20T00:09:49;6.50;99.90
21282;DHT22;10800;53.096;18.328;2023-12-20T00:15:13;6.50;99.90
21282;DHT22;10800;53.096;18.328;2023-12-20T00:20:36;6.50;99.90
21282;DHT22;10800;53.096;18.328;2023-12-20T00:26:26;6.50;99.90
21282;DHT22;10800;53.096;18.328;2023-12-20T00:31:57;6.50;99.90
21282;DHT22;10800;53.096;18.328;2023-12-20T00:37:42;6.50;99.90
21282;DHT22;10800;53.096;18.328;2023-12-20T00:42:55;6.50;99.90
21282;DHT22;10800;53.096;18.328;2023-12-20T00:48:23;6.50;99.90
21282;DHT22;10800;53.096;18.328;2023-12-20T00:53:46;6.50;99.90
21282;DHT22;10800;53.096;18.328;2023-12-20T00:59:17;6.50;99.90
21282;DHT22;10800;53.096;18.328;2023-12-20T01:04:48;6.50;99.90
21282;DHT22;10800;53.096;18.328;2023-12-20T01:09:59;6.60;99.90
21282;DHT22;10800;53.096;18.328;2023-12-20T01:15:50;6.60;99.90
21282;DHT22;10800;53.096;18.328;2023-12-20T01:26:13;6.60;99.90
21282;DHT22;10800;53.096;18.328;2023-12-20T01:31:45;6.60;99.90
21282;DHT22;10800;53.096;18.328;2023-12-20T01:36:57;6.60;99.90
21282;DHT22;10800;53.096;18.328;2023-12-20T01:42:05;6.60;99.90
21282;DHT22;10800;53.096;18.328;2023-12-20T01:47:20;6.60;99.90
21282;DHT22;10800;53.096;18.328;2023-12-20T01:53:25;6.60;99.90
21282;DHT22;10800;53.096;18.328;2023-12-20T01:58:43;6.60;99.90
21282;DHT22;10800;53.096;18.328;2023-12-20T02:03:54;6.60;99.90
21282;DHT22;10800;53.096;18.328;2023-12-20T02:09:07;6.60;99.90
21282;DHT22;10800;53.096;18.328;2023-12-20T02:14:35;6.70;99.90
21282;DHT22;10800;53.096;18.328;2023-12-20T02:19:49;6.60;99.90
21282;DHT22;10800;53.096;18.328;2023-12-20T02:25:34;6.70;99.90
21282;DHT22;10800;53.096;18.328;2023-12-20T02:30:48;6.70;99.90
21282;DHT22;10800;53.096;18.328;2023-12-20T02:36:03;6.70;99.90
21282;DHT22;10800;53.096;18.328;2023-12-20T02:41:45;6.70;99.90
21282;DHT22;10800;53.096;18.328;2023-12-20T02:46:58;6.70;99.90
21282;DHT22;10800;53.096;18.328;2023-12-20T02:52:14;6.60;99.90
21282;DHT22;10800;53.096;18.328;2023-12-20T02:57:47;6.70;99.90
21282;DHT22;10800;53.096;18.328;2023-12-20T03:03:15;6.70;99.90
21282;DHT22;10800;53.096;18.328;2023-12-20T03:09:22;6.70;99.90
21282;DHT22;10800;53.096;18.328;2023-12-20T03:14:51;6.70;99.90
21282;DHT22;10800;53.096;18.328;2023-12-20T03:20:30;6.70;99.90
21282;DHT22;10800;53.096;18.328;2023-12-20T03:26:25;6.70;99.90
21282;DHT22;10800;53.096;18.328;2023-12-20T03:31:50;6.70;99.90
21282;DHT22;10800;53.096;18.328;2023-12-20T03:37:37;6.70;99.90
21282;DHT22;10800;53.096;18.328;2023-12-20T03:42:46;6.70;99.90
21282;DHT22;10800;53.096;18.328;2023-12-20T03:48:12;6.70;99.90
21282;DHT22;10800;53.096;18.328;2023-12-20T03:53:40;6.70;99.90
21282;DHT22;10800;53.096;18.328;2023-12-20T03:59:04;6.70;99.90
21282;DHT22;10800;53.096;18.328;2023-12-20T04:04:37;6.70;99.90
21282;DHT22;10800;53.096;18.328;2023-12-20T04:09:46;6.70;99.90
21282;DHT22;10800;53.096;18.328;2023-12-20T04:15:05;6.70;99.90
21282;DHT22;10800;53.096;18.328;2023-12-20T04:20:55;6.70;99.90
21282;DHT22;10800;53.096;18.328;2023-12-20T04:26:25;6.70;99.90
21282;DHT22;10800;53.096;18.328;2023-12-20T04:32:26;6.70;99.90
21282;DHT22;10800;53.096;18.328;2023-12-20T04:38:03;6.70;99.90
21282;DHT22;10800;53.096;18.328;2023-12-20T04:43:39;6.70;99.90
21282;DHT22;10800;53.096;18.328;2023-12-20T04:49:42;6.60;99.90
21282;DHT22;10800;53.096;18.328;2023-12-20T04:55:32;6.60;99.90
21282;DHT22;10800;53.096;18.328;2023-12-20T05:00:46;6.60;99.90
21282;DHT22;10800;53.096;18.328;2023-12-20T05:06:08;6.60;99.90
21282;DHT22;10800;53.096;18.328;2023-12-20T05:16:41;6.50;99.90
21282;DHT22;10800;53.096;18.328;2023-12-20T05:22:10;6.50;99.90
21282;DHT22;10800;53.096;18.328;2023-12-20T05:27:19;6.50;99.90
21282;DHT22;10800;53.096;18.328;2023-12-20T05:32:36;6.40;99.90
21282;DHT22;10800;53.096;18.328;2023-12-20T05:38:10;6.40;99.90
21282;DHT22;10800;53.096;18.328;2023-12-20T05:43:15;6.40;99.90
21282;DHT22;10800;53.096;18.328;2023-12-20T05:48:50;6.40;99.90
21282;DHT22;10800;53.096;18.328;2023-12-20T05:54:15;6.30;99.90
21282;DHT22;10800;53.096;18.328;2023-12-20T05:59:25;6.30;99.90
21282;DHT22;10800;53.096;18.328;2023-12-20T06:04:49;6.30;99.90
21282;DHT22;10800;53.096;18.328;2023-12-20T06:10:03;6.30;99.90
21282;DHT22;10800;53.096;18.328;2023-12-20T06:15:38;6.20;99.90
21282;DHT22;10800;53.096;18.328;2023-12-20T06:21:24;6.20;99.90
21282;DHT22;10800;53.096;18.328;2023-12-20T06:26:36;6.20;99.90
21282;DHT22;10800;53.096;18.328;2023-12-20T06:32:05;6.20;99.90
21282;DHT22;10800;53.096;18.328;2023-12-20T06:37:34;6.10;99.90
21282;DHT22;10800;53.096;18.328;2023-12-20T06:42:45;6.10;99.90
21282;DHT22;10800;53.096;18.328;2023-12-20T06:48:07;6.00;99.90
21282;DHT22;10800;53.096;18.328;2023-12-20T06:53:31;5.90;99.90
21282;DHT22;10800;53.096;18.328;2023-12-20T06:58:51;5.90;99.90
21282;DHT22;10800;53.096;18.328;2023-12-20T07:04:01;5.80;99.90
21282;DHT22;10800;53.096;18.328;2023-12-20T07:09:21;5.70;99.90
21282;DHT22;10800;53.096;18.328;2023-12-20T07:14:37;5.60;99.90
21282;DHT22;10800;53.096;18.328;2023-12-20T07:20:06;5.50;99.90
21282;DHT22;10800;53.096;18.328;2023-12-20T07:25:18;5.40;99.90
21282;DHT22;10800;53.096;18.328;2023-12-20T07:30:28;5.40;99.90
21282;DHT22;10800;53.096;18.328;2023-12-20T07:35:56;5.30;99.90
21282;DHT22;10800;53.096;18.328;2023-12-20T07:41:14;5.30;99.90
21282;DHT22;10800;53.096;18.328;2023-12-20T07:46:35;5.30;99.90
21282;DHT22;10800;53.096;18.328;2023-12-20T07:52:19;5.40;99.90
21282;DHT22;10800;53.096;18.328;2023-12-20T07:57:32;5.40;99.90
21282;DHT22;10800;53.096;18.328;2023-12-20T08:02:42;5.40;99.90
21282;DHT22;10800;53.096;18.328;2023-12-20T08:08:13;5.40;99.90
21282;DHT22;10800;53.096;18.328;2023-12-20T08:13:21;5.40;99.90
21282;DHT22;10800;53.096;18.328;2023-12-20T08:18:29;5.30;99.90
21282;DHT22;10800;53.096;18.328;2023-12-20T08:29:01;5.50;99.90
21282;DHT22;10800;53.096;18.328;2023-12-20T08:34:16;5.70;99.90
21282;DHT22;10800;53.096;18.328;2023-12-20T08:39:24;5.80;99.90
21282;DHT22;10800;53.096;18.328;2023-12-20T08:44:53;5.80;99.90
21282;DHT22;10800;53.096;18.328;2023-12-20T08:50:31;6.10;99.90
21282;DHT22;10800;53.096;18.328;2023-12-20T08:56:07;6.30;99.90
21282;DHT22;10800;53.096;18.328;2023-12-20T09:01:18;6.30;99.90
21282;DHT22;10800;53.096;18.328;2023-12-20T09:07:20;6.10;99.90
21282;DHT22;10800;53.096;18.328;2023-12-20T09:12:48;5.90;99.90
21282;DHT22;10800;53.096;18.328;2023-12-20T09:18:10;5.80;99.90
21282;DHT22;10800;53.096;18.328;2023-12-20T09:23:36;5.80;99.90
21282;DHT22;10800;53.096;18.328;2023-12-20T09:28:55;5.70;99.90
21282;DHT22;10800;53.096;18.328;2023-12-20T09:34:15;5.80;99.90
21282;DHT22;10800;53.096;18.328;2023-12-20T09:39:30;5.80;99.90
21282;DHT22;10800;53.096;18.328;2023-12-20T09:45:00;5.90;99.90
21282;DHT22;10800;53.096;18.328;2023-12-20T09:50:15;6.20;99.90
21282;DHT22;10800;53.096;18.328;2023-12-20T09:55:33;6.40;99.90
21282;DHT22;10800;53.096;18.328;2023-12-20T10:00:55;6.40;99.90
21282;DHT22;10800;53.096;18.328;2023-12-20T10:06:29;6.60;99.90
21282;DHT22;10800;53.096;18.328;2023-12-20T10:11:42;7.00;99.90
21282;DHT22;10800;53.096;18.328;2023-12-20T10:22:18;6.80;99.90
21282;DHT22;10800;53.096;18.328;2023-12-20T10:27:33;6.70;99.90
21282;DHT22;10800;53.096;18.328;2023-12-20T10:33:01;6.60;99.90
21282;DHT22;10800;53.096;18.328;2023-12-20T10:38:41;6.90;99.90
21282;DHT22;10800;53.096;18.328;2023-12-20T10:43:49;7.40;99.90
21282;DHT22;10800;53.096;18.328;2023-12-20T10:48:57;7.30;99.90
21282;DHT22;10800;53.096;18.328;2023-12-20T10:54:08;7.00;99.90
21282;DHT22;10800;53.096;18.328;2023-12-20T10:59:20;6.90;99.90
21282;DHT22;10800;53.096;18.328;2023-12-20T11:04:31;6.70;99.90
21282;DHT22;10800;53.096;18.328;2023-12-20T11:09:48;6.60;99.90
21282;DHT22;10800;53.096;18.328;2023-12-20T11:14:58;6.50;99.90
21282;DHT22;10800;53.096;18.328;2023-12-20T11:20:10;6.60;99.90
21282;DHT22;10800;53.096;18.328;2023-12-20T11:25:19;6.60;99.90
21282;DHT22;10800;53.096;18.328;2023-12-20T11:30:40;6.50;99.90
21282;DHT22;10800;53.096;18.328;2023-12-20T11:35:39;6.50;99.90
21282;DHT22;10800;53.096;18.328;2023-12-20T11:40:49;6.40;99.90
21282;DHT22;10800;53.096;18.328;2023-12-20T11:46:09;6.40;99.90
21282;DHT22;10800;53.096;18.328;2023-12-20T11:51:15;6.40;99.90
21282;DHT22;10800;53.096;18.328;2023-12-20T11:56:25;6.40;99.90
21282;DHT22;10800;53.096;18.328;2023-12-20T12:01:33;6.40;99.90
21282;DHT22;10800;53.096;18.328;2023-12-20T12:06:40;6.50;99.90
21282;DHT22;10800;53.096;18.328;2023-12-20T12:11:50;6.50;99.90
21282;DHT22;10800;53.096;18.328;2023-12-20T12:17:00;6.50;99.90
21282;DHT22;10800;53.096;18.328;2023-12-20T12:22:15;6.40;99.90
21282;DHT22;10800;53.096;18.328;2023-12-20T12:27:32;6.30;99.90
21282;DHT22;10800;53.096;18.328;2023-12-20T12:32:43;6.30;99.90
21282;DHT22;10800;53.096;18.328;2023-12-20T12:38:11;6.20;99.90
21282;DHT22;10800;53.096;18.328;2023-12-20T12:43:38;6.20;99.90
21282;DHT22;10800;53.096;18.328;2023-12-20T12:49:09;6.10;99.90
21282;DHT22;10800;53.096;18.328;2023-12-20T12:54:47;6.10;99.90
21282;DHT22;10800;53.096;18.328;2023-12-20T13:00:18;6.00;99.90
21282;DHT22;10800;53.096;18.328;2023-12-20T13:05:53;6.00;99.90
21282;DHT22;10800;53.096;18.328;2023-12-20T13:11:10;6.00;99.90
21282;DHT22;10800;53.096;18.328;2023-12-20T13:16:28;6.00;99.90
21282;DHT22;10800;53.096;18.328;2023-12-20T13:21:38;5.90;99.90
21282;DHT22;10800;53.096;18.328;2023-12-20T13:26:52;5.90;99.90
21282;DHT22;10800;53.096;18.328;2023-12-20T13:32:10;5.90;99.90
21282;DHT22;10800;53.096;18.328;2023-12-20T13:37:25;5.90;99.90
21282;DHT22;10800;53.096;18.328;2023-12-20T13:42:51;5.80;99.90
21282;DHT22;10800;53.096;18.328;2023-12-20T13:48:21;5.80;99.90
21282;DHT22;10800;53.096;18.328;2023-12-20T13:53:47;5.80;99.90
21282;DHT22;10800;53.096;18.328;2023-12-20T13:59:03;5.80;99.90
21282;DHT22;10800;53.096;18.328;2023-12-20T14:04:35;5.80;99.90
21282;DHT22;10800;53.096;18.328;2023-12-20T14:10:19;5.80;99.90
21282;DHT22;10800;53.096;18.328;2023-12-20T14:15:42;5.80;99.90
21282;DHT22;10800;53.096;18.328;2023-12-20T14:21:27;5.80;99.90
21282;DHT22;10800;53.096;18.328;2023-12-20T14:27:08;5.80;99.90
21282;DHT22;10800;53.096;18.328;2023-12-20T14:32:36;5.80;99.90
21282;DHT22;10800;53.096;18.328;2023-12-20T14:37:56;5.70;99.90
21282;DHT22;10800;53.096;18.328;2023-12-20T14:43:23;5.80;99.90
21282;DHT22;10800;53.096;18.328;2023-12-20T14:48:57;5.80;99.90
21282;DHT22;10800;53.096;18.328;2023-12-20T14:54:28;5.80;99.90
21282;DHT22;10800;53.096;18.328;2023-12-20T15:06:01;5.80;99.90
21282;DHT22;10800;53.096;18.328;2023-12-20T15:11:14;5.80;99.90
21282;DHT22;10800;53.096;18.328;2023-12-20T15:16:32;5.80;99.90
21282;DHT22;10800;53.096;18.328;2023-12-20T15:22:26;5.80;99.90
21282;DHT22;10800;53.096;18.328;2023-12-20T15:27:37;5.80;99.90
21282;DHT22;10800;53.096;18.328;2023-12-20T15:32:45;5.80;99.90
21282;DHT22;10800;53.096;18.328;2023-12-20T15:37:51;5.80;99.90
21282;DHT22;10800;53.096;18.328;2023-12-20T15:42:58;5.80;99.90
21282;DHT22;10800;53.096;18.328;2023-12-20T15:48:10;5.80;99.90
21282;DHT22;10800;53.096;18.328;2023-12-20T15:53:23;5.70;99.90
21282;DHT22;10800;53.096;18.328;2023-12-20T15:58:30;5.60;99.90
21282;DHT22;10800;53.096;18.328;2023-12-20T16:03:55;5.60;99.90
21282;DHT22;10800;53.096;18.328;2023-12-20T16:09:26;5.50;99.90
21282;DHT22;10800;53.096;18.328;2023-12-20T16:14:33;5.40;99.90
21282;DHT22;10800;53.096;18.328;2023-12-20T16:20:05;5.40;99.90
21282;DHT22;10800;53.096;18.328;2023-12-20T16:25:46;5.40;99.90
21282;DHT22;10800;53.096;18.328;2023-12-20T16:30:53;5.40;99.90
21282;DHT22;10800;53.096;18.328;2023-12-20T16:36:19;5.40;99.90
21282;DHT22;10800;53.096;18.328;2023-12-20T16:41:27;5.40;99.90
21282;DHT22;10800;53.096;18.328;2023-12-20T16:46:49;5.40;99.90
21282;DHT22;10800;53.096;18.328;2023-12-20T16:52:49;5.30;99.90
21282;DHT22;10800;53.096;18.328;2023-12-20T17:04:02;5.30;99.90
21282;DHT22;10800;53.096;18.328;2023-12-20T17:10:21;5.30;99.90
21282;DHT22;10800;53.096;18.328;2023-12-20T17:16:12;5.40;99.90
21282;DHT22;10800;53.096;18.328;2023-12-20T17:27:24;5.40;99.90
21282;DHT22;10800;53.096;18.328;2023-12-20T17:32:42;5.30;99.90
21282;DHT22;10800;53.096;18.328;2023-12-20T17:38:37;5.30;99.90
21282;DHT22;10800;53.096;18.328;2023-12-20T17:44:26;5.10;99.90
21282;DHT22;10800;53.096;18.328;2023-12-20T17:50:12;4.90;99.90
21282;DHT22;10800;53.096;18.328;2023-12-20T17:55:59;4.60;99.90
21282;DHT22;10800;53.096;18.328;2023-12-20T18:01:55;4.50;99.90
21282;DHT22;10800;53.096;18.328;2023-12-20T18:07:13;4.40;99.90
21282;DHT22;10800;53.096;18.328;2023-12-20T18:12:37;4.40;99.90
21282;DHT22;10800;53.096;18.328;2023-12-20T18:17:52;4.30;99.90
21282;DHT22;10800;53.096;18.328;2023-12-20T18:23:37;4.20;99.90
21282;DHT22;10800;53.096;18.328;2023-12-20T18:29:07;4.10;99.90
21282;DHT22;10800;53.096;18.328;2023-12-20T18:34:24;4.20;99.90
21282;DHT22;10800;53.096;18.328;2023-12-20T18:39:48;4.10;99.90
21282;DHT22;10800;53.096;18.328;2023-12-20T18:45:10;4.10;99.90
21282;DHT22;10800;53.096;18.328;2023-12-20T18:50:26;4.20;99.90
21282;DHT22;10800;53.096;18.328;2023-12-20T18:55:58;4.30;99.90
21282;DHT22;10800;53.096;18.328;2023-12-20T19:01:50;4.30;99.90
21282;DHT22;10800;53.096;18.328;2023-12-20T19:07:40;4.20;99.90
21282;DHT22;10800;53.096;18.328;2023-12-20T19:13:16;4.10;99.90
21282;DHT22;10800;53.096;18.328;2023-12-20T19:19:02;4.20;99.90
21282;DHT22;10800;53.096;18.328;2023-12-20T19:24:31;4.30;99.90
21282;DHT22;10800;53.096;18.328;2023-12-20T19:30:22;4.30;99.90
21282;DHT22;10800;53.096;18.328;2023-12-20T19:35:58;4.40;99.90
21282;DHT22;10800;53.096;18.328;2023-12-20T19:42:02;4.50;99.90
21282;DHT22;10800;53.096;18.328;2023-12-20T19:48:17;4.60;99.90
21282;DHT22;10800;53.096;18.328;2023-12-20T19:53:43;4.60;99.90
21282;DHT22;10800;53.096;18.328;2023-12-20T19:59:02;4.60;99.90
21282;DHT22;10800;53.096;18.328;2023-12-20T20:04:48;4.60;99.90
21282;DHT22;10800;53.096;18.328;2023-12-20T20:10:29;4.60;99.90
21282;DHT22;10800;53.096;18.328;2023-12-20T20:22:26;4.50;99.90
21282;DHT22;10800;53.096;18.328;2023-12-20T20:28:08;4.40;99.90
21282;DHT22;10800;53.096;18.328;2023-12-20T20:33:52;4.30;99.90
21282;DHT22;10800;53.096;18.328;2023-12-20T20:39:29;4.20;99.90
21282;DHT22;10800;53.096;18.328;2023-12-20T20:45:08;4.10;99.90
21282;DHT22;10800;53.096;18.328;2023-12-20T20:50:56;4.00;99.90
21282;DHT22;10800;53.096;18.328;2023-12-20T21:01:56;4.10;99.90
21282;DHT22;10800;53.096;18.328;2023-12-20T21:07:06;4.20;99.90
21282;DHT22;10800;53.096;18.328;2023-12-20T21:12:23;4.20;99.90
21282;DHT22;10800;53.096;18.328;2023-12-20T21:17:41;4.20;99.90
21282;DHT22;10800;53.096;18.328;2023-12-20T21:22:52;4.20;99.90
21282;DHT22;10800;53.096;18.328;2023-12-20T21:28:04;4.20;99.90
21282;DHT22;10800;53.096;18.328;2023-12-20T21:33:37;4.20;99.90
21282;DHT22;10800;53.096;18.328;2023-12-20T21:38:50;4.20;99.90
21282;DHT22;10800;53.096;18.328;2023-12-20T21:44:07;4.20;99.90
21282;DHT22;10800;53.096;18.328;2023-12-20T21:49:19;4.20;99.90
21282;DHT22;10800;53.096;18.328;2023-12-20T21:54:52;4.20;99.90
21282;DHT22;10800;53.096;18.328;2023-12-20T22:00:02;4.30;99.90
21282;DHT22;10800;53.096;18.328;2023-12-20T22:05:28;4.20;99.90
21282;DHT22;10800;53.096;18.328;2023-12-20T22:10:34;4.10;99.90
21282;DHT22;10800;53.096;18.328;2023-12-20T22:15:41;4.20;99.90
21282;DHT22;10800;53.096;18.328;2023-12-20T22:21:02;4.20;99.90
21282;DHT22;10800;53.096;18.328;2023-12-20T22:26:09;4.20;99.90
21282;DHT22;10800;53.096;18.328;2023-12-20T22:31:17;4.20;99.90
21282;DHT22;10800;53.096;18.328;2023-12-20T22:36:55;4.20;99.90
21282;DHT22;10800;53.096;18.328;2023-12-20T22:42:06;4.10;99.90
21282;DHT22;10800;53.096;18.328;2023-12-20T22:47:15;4.00;99.90
21282;DHT22;10800;53.096;18.328;2023-12-20T22:52:31;3.90;99.90
21282;DHT22;10800;53.096;18.328;2023-12-20T22:57:59;3.90;99.90
21282;DHT22;10800;53.096;18.328;2023-12-20T23:03:07;4.00;99.90
21282;DHT22;10800;53.096;18.328;2023-12-20T23:08:15;4.00;99.90
21282;DHT22;10800;53.096;18.328;2023-12-20T23:13:47;4.10;99.90
21282;DHT22;10800;53.096;18.328;2023-12-20T23:19:26;4.10;99.90
21282;DHT22;10800;53.096;18.328;2023-12-20T23:25:29;4.10;99.90
21282;DHT22;10800;53.096;18.328;2023-12-20T23:36:52;4.10;99.90
21282;DHT22;10800;53.096;18.328;2023-12-20T23:42:21;4.20;99.90
21282;DHT22;10800;53.096;18.328;2023-12-20T23:47:35;4.20;99.90
21282;DHT22;10800;53.096;18.328;2023-12-20T23:53:00;4.30;99.90
21282;DHT22;10800;53.096;18.328;2023-12-20T23:58:32;4.40;99.90
